Pagina principale
METAR-TAF:

METAR-TAF

Aeroporti :

Aeroporto di Pescara

Pescara, Italia

latitudine: 42-26N, longitudine: 014-12E, altezza: 10 m

Osservazione

Il bollettino è stato emesso 15 minuti fa, alle 14:50 UTC
Vento 8 kt da sud-ovest
Temperature 24°C
Umidità 41%
Pressione 1001 hPa
Visibilità 10 km o più

METAR: LIBP 271450Z AUTO 23008KT 9999 BKN093/// 24/10 Q1001

Ora: 17:05 (15:05 UTC)

Previsione

Il bollettino è stato emesso 4 ore e 5 minuti fa, alle 11:00 UTC
Previsione valida dal 27 alle 12 UTC al 28 alle 12 UTC
Vento 14 kt da sud-ovest
Visibilità 10 km o più
Nubi sparse ad un'altezza di 4000 ft
Temporaneamente
dal 27 alle 12 UTC al 27 alle 16 UTC
Vento 20 kt da sud-ovest con raffiche fino a 30 kt
Evoluzione graduale
dal 28 alle 09 UTC al 28 alle 11 UTC
Vento 10 kt da est

TAF: LIBP 271100Z 2712/2812 23014KT 9999 SCT040 TEMPO 2712/2716 23020G30KT BECMG 2809/2811 09010KT

Osservazioni e previsioni meteorologiche di più di 4000 aeroporti (messaggi METAR e TAF).

Le stazioni disponibili sono rappresentate dai dischi gialli e rossi sulla carta.

Puntare il mouse per vedere il nome della stazione.

Clicca sopra per visualizzare le osservazioni e previsioni meteorologiche.

Per cambiare la mappa : fare clic sui pulsanti verdi con una croce nera per ingrandire, il pulsante verde con un trattino per diminuire, o sulla freccia verde per le mappe adiacenti.


METAR-TAF: